Time,TemperatureF,DewpointF,PressureIn,WindDirection,WindDirectionDegrees,WindSpeedMPH,WindSpeedGustMPH,Humidity,HourlyPrecipIn,Conditions,Clouds,dailyrainin,SoftwareType,DateUTC
2013-03-12 00:10:00,56.0,46.0,30.10,ESE,105,3.0,3.0,68,0.00,,,0.00,weatherlink.com 1.10,2013-03-12 07:10:00,
2013-03-12 00:26:00,54.5,46.0,30.11,East,101,0.0,1.0,73,0.00,,,0.00,weatherlink.com 1.10,2013-03-12 07:26:00,
2013-03-12 00:41:00,53.5,46.0,30.11,East,87,0.0,3.0,77,0.00,,,0.00,weatherlink.com 1.10,2013-03-12 07:41:00,
2013-03-12 00:56:00,52.0,46.0,30.11,East,87,0.0,0.0,79,0.00,,,0.00,weatherlink.com 1.10,2013-03-12 07:56:00,
2013-03-12 01:26:00,51.3,46.0,30.11,East,99,3.0,3.0,81,0.00,,,0.00,weatherlink.com 1.10,2013-03-12 08:26:00,
2013-03-12 01:41:00,52.1,46.0,30.11,ESE,118,0.0,3.0,80,0.00,,,0.00,weatherlink.com 1.10,2013-03-12 08:41:00,
2013-03-12 02:26:00,51.5,46.0,30.12,ESE,112,1.0,3.0,80,0.00,,,0.00,weatherlink.com 1.10,2013-03-12 09:26:00,
2013-03-12 02:41:00,50.4,45.0,30.12,ESE,113,0.0,1.0,82,0.00,,,0.00,weatherlink.com 1.10,2013-03-12 09:41:00,
2013-03-12 02:56:00,50.6,46.0,30.12,SE,126,1.0,4.0,84,0.00,,,0.00,weatherlink.com 1.10,2013-03-12 09:56:00,
2013-03-12 03:11:00,50.7,46.0,30.11,ESE,102,1.0,3.0,84,0.00,,,0.00,weatherlink.com 1.10,2013-03-12 10:11:00,
2013-03-12 03:26:00,51.4,46.0,30.11,ESE,115,2.0,4.0,83,0.00,,,0.00,weatherlink.com 1.10,2013-03-12 10:26:00,
2013-03-12 03:41:00,51.2,46.0,30.11,ESE,115,1.0,2.0,83,0.00,,,0.00,weatherlink.com 1.10,2013-03-12 10:41:00,
2013-03-12 03:56:00,50.5,46.0,30.11,ESE,107,0.0,3.0,84,0.00,,,0.00,weatherlink.com 1.10,2013-03-12 10:56:00,
2013-03-12 04:11:00,48.8,45.0,30.11,ESE,107,0.0,0.0,86,0.00,,,0.00,weatherlink.com 1.10,2013-03-12 11:11:00,
2013-03-12 04:26:00,47.5,44.0,30.11,ESE,109,0.0,0.0,87,0.00,,,0.00,weatherlink.com 1.10,2013-03-12 11:26:00,
2013-03-12 04:41:00,46.0,44.0,30.11,SSE,158,0.0,0.0,93,0.00,,,0.00,weatherlink.com 1.10,2013-03-12 11:41:00,
2013-03-12 04:56:00,46.5,44.0,30.11,SSE,157,0.0,0.0,92,0.00,,,0.00,weatherlink.com 1.10,2013-03-12 11:56:00,
2013-03-12 05:11:00,44.8,42.0,30.11,WSW,242,0.0,4.0,90,0.00,,,0.00,weatherlink.com 1.10,2013-03-12 12:11:00,
2013-03-12 05:26:00,43.4,41.0,30.11,WSW,242,0.0,0.0,90,0.00,,,0.00,weatherlink.com 1.10,2013-03-12 12:26:00,
2013-03-12 05:41:00,43.6,42.0,30.12,WSW,242,0.0,0.0,95,0.00,,,0.00,weatherlink.com 1.10,2013-03-12 12:41:00,
2013-03-12 05:57:00,44.4,43.0,30.12,WSW,242,0.0,0.0,96,0.00,,,0.00,weatherlink.com 1.10,2013-03-12 12:57:00,
2013-03-12 06:11:00,43.5,42.0,30.13,WSW,242,0.0,1.0,95,0.00,,,0.00,weatherlink.com 1.10,2013-03-12 13:11:00,
2013-03-12 06:26:00,42.5,41.0,30.13,WSW,242,0.0,0.0,95,0.00,,,0.00,weatherlink.com 1.10,2013-03-12 13:26:00,
2013-03-12 06:41:00,44.1,43.0,30.12,WSW,242,0.0,1.0,97,0.00,,,0.00,weatherlink.com 1.10,2013-03-12 13:41:00,
2013-03-12 06:56:00,45.3,45.0,30.12,WSW,242,0.0,0.0,97,0.00,,,0.00,weatherlink.com 1.10,2013-03-12 13:56:00,
2013-03-12 07:12:00,44.5,44.0,30.13,West,267,0.0,2.0,97,0.00,,,0.00,weatherlink.com 1.10,2013-03-12 14:12:00,
2013-03-12 07:27:00,44.0,43.0,30.13,NE,46,0.0,2.0,96,0.00,,,0.00,weatherlink.com 1.10,2013-03-12 14:27:00,
2013-03-12 07:42:00,43.6,43.0,30.13,NE,46,0.0,0.0,96,0.00,,,0.00,weatherlink.com 1.10,2013-03-12 14:42:00,
2013-03-12 07:57:00,43.8,43.0,30.13,NE,46,0.0,0.0,97,0.00,,,0.00,weatherlink.com 1.10,2013-03-12 14:57:00,
2013-03-12 08:12:00,45.1,44.0,30.14,NE,46,0.0,0.0,97,0.00,,,0.00,weatherlink.com 1.10,2013-03-12 15:12:00,
2013-03-12 08:27:00,46.9,46.0,30.14,NE,46,0.0,0.0,98,0.00,,,0.00,weatherlink.com 1.10,2013-03-12 15:27:00,
2013-03-12 08:42:00,48.5,48.0,30.15,NE,46,0.0,1.0,97,0.00,,,0.00,weatherlink.com 1.10,2013-03-12 15:42:00,
2013-03-12 08:57:00,50.9,49.0,30.16,NE,46,2.0,2.0,93,0.00,,,0.00,weatherlink.com 1.10,2013-03-12 15:57:00,
2013-03-12 09:12:00,53.0,49.0,30.16,WNW,302,0.0,1.0,86,0.00,,,0.00,weatherlink.com 1.10,2013-03-12 16:12:00,
2013-03-12 09:27:00,55.5,50.0,30.16,WNW,302,0.0,0.0,81,0.00,,,0.00,weatherlink.com 1.10,2013-03-12 16:27:00,
2013-03-12 09:42:00,57.0,50.0,30.16,North,355,0.0,1.0,77,0.00,,,0.00,weatherlink.com 1.10,2013-03-12 16:42:00,
2013-03-12 09:57:00,57.7,50.0,30.17,NE,55,2.0,4.0,76,0.00,,,0.00,weatherlink.com 1.10,2013-03-12 16:57:00,
2013-03-12 10:12:00,58.0,50.0,30.17,NE,46,1.0,4.0,74,0.00,,,0.00,weatherlink.com 1.10,2013-03-12 17:12:00,
2013-03-12 10:27:00,59.1,50.0,30.17,East,91,1.0,4.0,71,0.00,,,0.00,weatherlink.com 1.10,2013-03-12 17:27:00,
2013-03-12 10:43:00,60.9,51.0,30.16,SSW,192,2.0,3.0,69,0.00,,,0.00,weatherlink.com 1.10,2013-03-12 17:43:00,
2013-03-12 10:57:00,62.7,49.0,30.16,South,174,2.0,5.0,62,0.00,,,0.00,weatherlink.com 1.10,2013-03-12 17:57:00,
2013-03-12 11:13:00,63.7,50.0,30.16,SSE,163,1.0,4.0,62,0.00,,,0.00,weatherlink.com 1.10,2013-03-12 18:13:00,
2013-03-12 11:28:00,64.4,50.0,30.16,East,86,1.0,3.0,60,0.00,,,0.00,weatherlink.com 1.10,2013-03-12 18:28:00,
2013-03-12 11:43:00,65.2,49.0,30.16,NNE,32,1.0,5.0,57,0.00,,,0.00,weatherlink.com 1.10,2013-03-12 18:43:00,
2013-03-12 11:58:00,66.5,51.0,30.15,NNE,32,0.0,3.0,57,0.00,,,0.00,weatherlink.com 1.10,2013-03-12 18:58:00,
2013-03-12 12:13:00,66.9,49.0,30.14,NNW,341,1.0,7.0,53,0.00,,,0.00,weatherlink.com 1.10,2013-03-12 19:13:00,
2013-03-12 12:28:00,67.3,49.0,30.14,North,355,0.0,5.0,53,0.00,,,0.00,weatherlink.com 1.10,2013-03-12 19:28:00,
2013-03-12 12:43:00,68.4,48.0,30.14,NE,50,1.0,3.0,48,0.00,,,0.00,weatherlink.com 1.10,2013-03-12 19:43:00,
2013-03-12 12:58:00,69.5,49.0,30.14,NW,314,0.0,5.0,49,0.00,,,0.00,weatherlink.com 1.10,2013-03-12 19:58:00,
2013-03-12 13:13:00,69.4,49.0,30.13,East,98,1.0,4.0,49,0.00,,,0.00,weatherlink.com 1.10,2013-03-12 20:13:00,
2013-03-12 13:28:00,70.3,50.0,30.12,SW,216,1.0,4.0,48,0.00,,,0.00,weatherlink.com 1.10,2013-03-12 20:28:00,
2013-03-12 13:43:00,71.0,51.0,30.12,WNW,288,3.0,6.0,50,0.00,,,0.00,weatherlink.com 1.10,2013-03-12 20:43:00,
2013-03-12 13:58:00,70.9,50.0,30.11,NW,310,4.0,6.0,48,0.00,,,0.00,weatherlink.com 1.10,2013-03-12 20:58:00,
2013-03-12 14:13:00,71.5,50.0,30.10,WSW,240,2.0,5.0,46,0.00,,,0.00,weatherlink.com 1.10,2013-03-12 21:13:00,
2013-03-12 14:28:00,72.2,49.0,30.09,SSW,206,1.0,4.0,44,0.00,,,0.00,weatherlink.com 1.10,2013-03-12 21:28:00,
2013-03-12 14:43:00,72.6,49.0,30.08,SSE,165,4.0,5.0,44,0.00,,,0.00,weatherlink.com 1.10,2013-03-12 21:43:00,
2013-03-12 14:58:00,73.5,50.0,30.08,WSW,258,4.0,4.0,43,0.00,,,0.00,weatherlink.com 1.10,2013-03-12 21:58:00,
2013-03-12 15:13:00,73.7,49.0,30.08,South,182,2.0,5.0,42,0.00,,,0.00,weatherlink.com 1.10,2013-03-12 22:13:00,
2013-03-12 15:28:00,74.0,49.0,30.07,WSW,246,0.0,5.0,42,0.00,,,0.00,weatherlink.com 1.10,2013-03-12 22:28:00,
2013-03-12 15:43:00,74.4,52.0,30.07,WNW,298,4.0,5.0,45,0.00,,,0.00,weatherlink.com 1.10,2013-03-12 22:43:00,
2013-03-12 15:59:00,74.5,49.0,30.07,WNW,285,3.0,5.0,41,0.00,,,0.00,weatherlink.com 1.10,2013-03-12 22:59:00,
2013-03-12 16:14:00,74.7,48.0,30.07,WSW,248,1.0,5.0,39,0.00,,,0.00,weatherlink.com 1.10,2013-03-12 23:14:00,
2013-03-12 16:29:00,75.4,49.0,30.07,WNW,284,2.0,6.0,40,0.00,,,0.00,weatherlink.com 1.10,2013-03-12 23:29:00,
2013-03-12 16:44:00,75.0,51.0,30.06,West,274,3.0,5.0,43,0.00,,,0.00,weatherlink.com 1.10,2013-03-12 23:44:00,
2013-03-12 16:59:00,75.2,51.0,30.06,West,274,3.0,6.0,43,0.00,,,0.00,weatherlink.com 1.10,2013-03-12 23:59:00,
2013-03-12 17:14:00,75.2,48.0,30.06,WSW,248,5.0,6.0,39,0.00,,,0.00,weatherlink.com 1.10,2013-03-13 00:14:00,
2013-03-12 17:29:00,75.1,48.0,30.06,WSW,252,2.0,5.0,39,0.00,,,0.00,weatherlink.com 1.10,2013-03-13 00:29:00,
2013-03-12 17:44:00,74.3,50.0,30.06,WSW,256,3.0,5.0,42,0.00,,,0.00,weatherlink.com 1.10,2013-03-13 00:44:00,
2013-03-12 17:59:00,74.6,50.0,30.05,WSW,244,2.0,3.0,42,0.00,,,0.00,weatherlink.com 1.10,2013-03-13 00:59:00,
2013-03-12 18:14:00,74.2,50.0,30.06,WSW,244,1.0,3.0,43,0.00,,,0.00,weatherlink.com 1.10,2013-03-13 01:14:00,
2013-03-12 18:29:00,73.7,50.0,30.06,WSW,252,1.0,2.0,43,0.00,,,0.00,weatherlink.com 1.10,2013-03-13 01:29:00,
2013-03-12 18:44:00,72.6,52.0,30.06,WSW,253,0.0,2.0,48,0.00,,,0.00,weatherlink.com 1.10,2013-03-13 01:44:00,
2013-03-12 18:59:00,70.0,51.0,30.06,WSW,246,1.0,2.0,52,0.00,,,0.00,weatherlink.com 1.10,2013-03-13 01:59:00,
2013-03-12 19:14:00,67.9,50.0,30.06,WSW,246,0.0,1.0,54,0.00,,,0.00,weatherlink.com 1.10,2013-03-13 02:14:00,
2013-03-12 19:29:00,65.7,50.0,30.06,WSW,246,0.0,1.0,57,0.00,,,0.00,weatherlink.com 1.10,2013-03-13 02:29:00,
2013-03-12 19:44:00,64.4,50.0,30.07,WSW,246,0.0,1.0,59,0.00,,,0.00,weatherlink.com 1.10,2013-03-13 02:44:00,
2013-03-12 19:59:00,64.1,49.0,30.08,WSW,246,1.0,2.0,59,0.00,,,0.00,weatherlink.com 1.10,2013-03-13 02:59:00,
2013-03-12 20:14:00,63.7,50.0,30.08,WSW,246,0.0,1.0,61,0.00,,,0.00,weatherlink.com 1.10,2013-03-13 03:14:00,
2013-03-12 20:29:00,63.6,50.0,30.08,WSW,246,0.0,0.0,61,0.00,,,0.00,weatherlink.com 1.10,2013-03-13 03:29:00,
2013-03-12 20:44:00,63.9,50.0,30.08,WSW,246,1.0,1.0,61,0.00,,,0.00,weatherlink.com 1.10,2013-03-13 03:44:00,
2013-03-12 20:59:00,63.5,50.0,30.09,WSW,246,0.0,1.0,62,0.00,,,0.00,weatherlink.com 1.10,2013-03-13 03:59:00,
2013-03-12 21:14:00,62.4,50.0,30.09,WSW,246,0.0,0.0,64,0.00,,,0.00,weatherlink.com 1.10,2013-03-13 04:14:00,
2013-03-12 21:29:00,60.9,50.0,30.09,WSW,246,0.0,0.0,67,0.00,,,0.00,weatherlink.com 1.10,2013-03-13 04:29:00,
2013-03-12 21:44:00,59.1,48.0,30.09,WSW,246,0.0,0.0,68,0.00,,,0.00,weatherlink.com 1.10,2013-03-13 04:44:00,
2013-03-12 21:59:00,57.8,49.0,30.09,WSW,246,0.0,0.0,72,0.00,,,0.00,weatherlink.com 1.10,2013-03-13 04:59:00,
2013-03-12 22:14:00,56.7,49.0,30.10,WSW,246,0.0,0.0,75,0.00,,,0.00,weatherlink.com 1.10,2013-03-13 05:14:00,
2013-03-12 22:44:00,55.3,49.0,30.11,WSW,246,0.0,0.0,79,0.00,,,0.00,weatherlink.com 1.10,2013-03-13 05:44:00,
2013-03-12 22:59:00,56.9,50.0,30.11,WSW,246,0.0,0.0,77,0.00,,,0.00,weatherlink.com 1.10,2013-03-13 05:59:00,
2013-03-12 23:14:00,57.1,50.0,30.11,WSW,246,0.0,0.0,77,0.00,,,0.00,weatherlink.com 1.10,2013-03-13 06:14:00,
2013-03-12 23:29:00,54.5,48.0,30.11,WSW,246,0.0,1.0,79,0.00,,,0.00,weatherlink.com 1.10,2013-03-13 06:29:00,
2013-03-12 23:44:00,52.3,48.0,30.11,WSW,246,0.0,0.0,84,0.00,,,0.00,weatherlink.com 1.10,2013-03-13 06:44:00,
2013-03-12 23:59:00,53.0,48.0,30.12,WSW,246,0.0,0.0,82,0.00,,,0.00,weatherlink.com 1.10,2013-03-13 06:59:00,